Time;durP1;ratioP1;P1;durP2;ratioP2;P2;SDS_P1;SDS_P2;PMS_P1;PMS_P2;Temp;Humidity;BMP_temperature;BMP_pressure;BME280_temperature;BME280_humidity;BME280_pressure;Samples;Min_cycle;Max_cycle;Signal;HPM_P1;HPM_P2
2022/12/19 00:01:29;;;;;;;9.70;6.93;;;11.60;99.90;;;;;;5071336;28;20221;-77
2022/12/19 00:04:00;;;;;;;8.97;7.33;;;11.60;99.90;;;;;;5086634;28;20312;-78
2022/12/19 00:06:29;;;;;;;7.03;6.33;;;11.60;99.90;;;;;;5072013;28;20206;-78
2022/12/19 00:08:59;;;;;;;7.37;6.50;;;11.60;99.90;;;;;;5064854;28;20214;-78
2022/12/19 00:11:27;;;;;;;8.37;6.03;;;11.60;99.90;;;;;;5079535;28;20226;-78
2022/12/19 00:13:54;;;;;;;9.73;6.60;;;11.50;99.90;;;;;;5061088;28;20205;-78
2022/12/19 00:16:28;;;;;;;9.40;6.97;;;11.50;99.90;;;;;;5050943;28;20182;-78
2022/12/19 00:19:00;;;;;;;8.00;6.63;;;11.50;99.90;;;;;;5067372;28;20179;-78
2022/12/19 00:21:30;;;;;;;8.17;7.03;;;11.50;99.90;;;;;;5063196;28;20298;-78
2022/12/19 00:23:58;;;;;;;10.00;7.03;;;11.50;99.90;;;;;;5060825;28;20221;-78
2022/12/19 00:26:29;;;;;;;10.77;6.80;;;11.50;99.90;;;;;;5078786;28;20653;-78
2022/12/19 00:28:59;;;;;;;7.87;6.37;;;11.50;99.90;;;;;;5058445;28;20651;-78
2022/12/19 00:31:29;;;;;;;11.70;6.90;;;11.40;99.90;;;;;;5052427;28;20188;-78
2022/12/19 00:33:57;;;;;;;8.80;5.90;;;11.40;99.90;;;;;;5067545;28;21667;-78
2022/12/19 00:36:29;;;;;;;6.67;5.97;;;11.40;99.90;;;;;;5061947;28;20179;-78
2022/12/19 00:38:58;;;;;;;8.50;6.67;;;11.40;99.90;;;;;;5067071;28;20667;-78
2022/12/19 00:41:28;;;;;;;7.63;6.00;;;11.40;99.90;;;;;;5078818;28;20186;-78
2022/12/19 00:44:08;;;;;;;7.87;6.17;;;11.30;99.90;;;;;;5049560;28;20235;-78
2022/12/19 00:46:37;;;;;;;7.23;5.90;;;11.30;99.90;;;;;;5068168;28;20265;-78
2022/12/19 00:49:05;;;;;;;7.40;5.33;;;11.30;99.90;;;;;;5065206;28;20179;-78
2022/12/19 00:51:35;;;;;;;9.57;5.67;;;11.30;99.90;;;;;;5064621;28;20176;-78
2022/12/19 00:54:02;;;;;;;7.00;5.07;;;11.20;99.90;;;;;;5038989;28;20663;-78
2022/12/19 00:56:32;;;;;;;8.07;5.83;;;11.20;99.90;;;;;;5065043;28;20194;-78
2022/12/19 00:58:59;;;;;;;6.70;5.43;;;11.20;99.90;;;;;;5071461;28;20217;-79
2022/12/19 01:01:31;;;;;;;8.13;6.30;;;11.30;99.90;;;;;;5044835;28;20189;-78
2022/12/19 01:04:00;;;;;;;7.70;6.63;;;11.20;99.90;;;;;;5072452;28;20650;-78
2022/12/19 01:06:28;;;;;;;7.67;5.97;;;11.30;99.90;;;;;;5069981;28;20627;-78
2022/12/19 01:08:55;;;;;;;9.03;6.13;;;11.30;99.90;;;;;;5082374;28;20516;-78
2022/12/19 01:12:44;;;;;;;8.40;6.37;;;11.30;99.90;;;;;;5067660;28;20206;-78
2022/12/19 01:14:10;;;;;;;6.60;5.90;;;11.30;99.90;;;;;;5058187;28;20175;-78
2022/12/19 01:16:36;;;;;;;6.67;5.90;;;11.20;99.90;;;;;;5082246;28;20183;-78
2022/12/19 01:19:03;;;;;;;6.20;5.23;;;11.20;99.90;;;;;;5084003;28;20269;-77
2022/12/19 01:21:29;;;;;;;8.23;5.63;;;11.20;99.90;;;;;;5050800;28;20786;-78
2022/12/19 01:23:55;;;;;;;8.93;5.60;;;11.20;99.90;;;;;;5065991;28;20488;-78
2022/12/19 01:26:22;;;;;;;6.67;5.90;;;11.10;99.90;;;;;;5065075;28;20249;-78
2022/12/19 01:28:48;;;;;;;7.07;5.07;;;11.10;99.90;;;;;;5063551;28;20187;-78
2022/12/19 01:31:15;;;;;;;6.30;5.20;;;11.10;99.90;;;;;;5059927;28;20186;-78
2022/12/19 01:33:42;;;;;;;6.37;5.43;;;11.10;99.90;;;;;;5089009;28;20702;-78
2022/12/19 01:36:09;;;;;;;8.67;5.57;;;11.10;99.90;;;;;;5070852;28;20210;-78
2022/12/19 01:38:36;;;;;;;6.57;4.97;;;11.20;99.90;;;;;;5068431;28;20724;-78
2022/12/19 01:41:04;;;;;;;6.10;5.37;;;11.20;99.90;;;;;;5042940;28;20187;-78
2022/12/19 01:43:53;;;;;;;9.73;5.60;;;11.20;99.90;;;;;;5060107;28;20579;-78
2022/12/19 01:46:29;;;;;;;7.87;5.07;;;11.20;99.90;;;;;;5059082;28;20606;-78
2022/12/19 01:48:56;;;;;;;7.90;5.00;;;11.20;99.90;;;;;;5050255;28;20186;-78
2022/12/19 01:51:32;;;;;;;8.90;5.13;;;11.20;99.90;;;;;;5051697;28;20228;-78
2022/12/19 01:54:06;;;;;;;7.33;4.80;;;11.10;99.90;;;;;;5041864;28;20489;-78
2022/12/19 01:56:39;;;;;;;8.17;5.10;;;11.10;99.90;;;;;;5061162;28;20559;-78
2022/12/19 01:59:15;;;;;;;7.73;4.77;;;11.10;99.90;;;;;;5056632;28;20636;-78
2022/12/19 02:01:42;;;;;;;6.10;4.83;;;11.10;99.90;;;;;;5072585;28;20182;-78
2022/12/19 02:04:10;;;;;;;5.40;4.43;;;11.10;99.90;;;;;;5067109;28;20512;-78
2022/12/19 02:06:41;;;;;;;6.37;4.87;;;11.10;99.90;;;;;;5068779;28;20670;-78
2022/12/19 02:09:10;;;;;;;5.23;4.27;;;11.00;99.90;;;;;;5064458;28;20179;-78
2022/12/19 02:11:37;;;;;;;4.87;4.07;;;11.00;99.90;;;;;;5050002;28;20203;-78
2022/12/19 02:14:03;;;;;;;5.60;4.47;;;11.10;99.90;;;;;;5078307;28;20195;-78
2022/12/19 02:16:56;;;;;;;6.60;4.43;;;11.00;99.90;;;;;;5070919;28;20270;-78
2022/12/19 02:20:05;;;;;;;6.80;4.87;;;11.00;99.90;;;;;;5081792;28;20191;-78
2022/12/19 02:23:13;;;;;;;10.30;4.63;;;11.00;99.90;;;;;;5057693;28;20743;-78
2022/12/19 02:26:11;;;;;;;8.17;4.83;;;11.00;99.90;;;;;;5066308;28;20210;-77
2022/12/19 02:29:09;;;;;;;7.30;4.30;;;11.00;99.90;;;;;;5078433;28;20648;-77
2022/12/19 02:32:09;;;;;;;7.50;4.40;;;11.00;99.90;;;;;;5063503;28;20214;-77
2022/12/19 02:34:47;;;;;;;5.40;4.30;;;11.00;99.90;;;;;;5051985;28;20195;-77
2022/12/19 02:37:26;;;;;;;6.00;4.50;;;11.00;99.90;;;;;;5078712;28;20179;-77
2022/12/19 02:40:23;;;;;;;6.63;4.63;;;11.00;99.90;;;;;;5071820;28;20278;-77
2022/12/19 02:42:58;;;;;;;7.23;4.30;;;10.90;99.90;;;;;;5067255;28;20190;-77
2022/12/19 02:45:33;;;;;;;7.87;4.77;;;11.00;99.90;;;;;;5068477;28;20380;-78
2022/12/19 02:48:03;;;;;;;8.07;4.93;;;11.00;99.90;;;;;;5042745;28;20218;-78
2022/12/19 02:50:42;;;;;;;8.60;4.40;;;10.90;99.90;;;;;;5050248;28;20183;-78
2022/12/19 02:53:14;;;;;;;6.57;4.67;;;10.90;99.90;;;;;;5056259;28;20208;-78
2022/12/19 02:56:09;;;;;;;5.50;4.50;;;10.90;99.90;;;;;;5068547;28;20651;-77
2022/12/19 02:59:20;;;;;;;7.80;4.70;;;10.90;99.90;;;;;;5064544;28;20191;-78
2022/12/19 03:01:55;;;;;;;5.33;4.37;;;11.00;99.90;;;;;;5053354;28;20240;-78
2022/12/19 03:05:06;;;;;;;7.60;4.57;;;11.00;99.90;;;;;;5073026;28;20615;-78
2022/12/19 03:07:49;;;;;;;5.97;4.73;;;11.00;99.90;;;;;;5055114;28;20566;-78
2022/12/19 03:10:40;;;;;;;5.97;3.87;;;11.00;99.90;;;;;;5069781;28;20686;-78
2022/12/19 03:13:22;;;;;;;8.77;4.70;;;11.00;99.90;;;;;;5066763;28;20184;-78
2022/12/19 03:15:49;;;;;;;6.23;4.50;;;10.90;99.90;;;;;;5052114;28;20186;-77
2022/12/19 03:18:18;;;;;;;7.50;4.33;;;10.90;99.90;;;;;;5066365;28;20183;-78
2022/12/19 03:20:48;;;;;;;6.07;4.27;;;10.90;99.90;;;;;;5084754;28;20179;-78
2022/12/19 03:23:15;;;;;;;7.53;4.20;;;10.90;99.90;;;;;;5060493;28;20788;-78
2022/12/19 03:25:54;;;;;;;7.93;4.63;;;10.90;99.90;;;;;;5052132;28;20242;-78
2022/12/19 03:28:39;;;;;;;10.67;4.40;;;10.90;99.90;;;;;;5070551;28;20639;-78
2022/12/19 03:31:08;;;;;;;6.47;3.90;;;11.00;99.90;;;;;;5075243;28;20186;-78
2022/12/19 03:33:38;;;;;;;8.30;4.00;;;10.90;99.90;;;;;;5052386;28;20194;-78
2022/12/19 03:36:13;;;;;;;11.63;3.73;;;11.00;99.90;;;;;;5050938;28;20280;-78
2022/12/19 03:38:44;;;;;;;5.17;3.80;;;11.00;99.90;;;;;;5056784;28;20866;-78
2022/12/19 03:41:15;;;;;;;6.40;4.20;;;11.00;99.90;;;;;;5065246;28;20199;-78
2022/12/19 03:43:45;;;;;;;7.87;3.87;;;11.00;99.90;;;;;;5066465;28;20251;-78
2022/12/19 03:46:21;;;;;;;7.70;4.47;;;11.00;99.90;;;;;;5050792;28;20198;-78
2022/12/19 03:48:52;;;;;;;5.57;4.20;;;11.00;99.90;;;;;;5070379;28;20663;-78
2022/12/19 03:52:14;;;;;;;6.33;3.73;;;11.00;99.90;;;;;;5087039;28;20540;-78
2022/12/19 03:54:56;;;;;;;5.67;3.83;;;11.00;99.90;;;;;;5042296;28;20249;-77
2022/12/19 03:57:38;;;;;;;5.93;4.10;;;10.90;99.90;;;;;;5078901;28;20183;-77
2022/12/19 04:00:14;;;;;;;5.57;3.83;;;10.90;99.90;;;;;;5052886;28;20222;-78
2022/12/19 04:02:48;;;;;;;7.27;3.90;;;10.90;99.90;;;;;;5052210;28;20543;-78
2022/12/19 04:05:22;;;;;;;3.87;3.50;;;10.90;99.90;;;;;;5068102;28;20217;-78
2022/12/19 04:07:52;;;;;;;5.07;3.60;;;10.90;99.90;;;;;;5048002;28;20188;-78
2022/12/19 04:10:24;;;;;;;4.43;3.63;;;10.80;99.90;;;;;;5081037;28;20186;-78
2022/12/19 04:13:00;;;;;;;6.33;3.77;;;10.80;99.90;;;;;;5058699;28;20184;-78
2022/12/19 04:15:53;;;;;;;5.00;3.60;;;10.80;99.90;;;;;;5060580;28;20194;-77
2022/12/19 04:18:22;;;;;;;5.43;3.70;;;10.80;99.90;;;;;;5064157;28;20186;-78
2022/12/19 04:21:21;;;;;;;4.63;3.60;;;10.80;99.90;;;;;;5064737;28;20331;-78
2022/12/19 04:23:58;;;;;;;7.73;3.90;;;10.80;99.90;;;;;;5067519;28;20300;-78
2022/12/19 04:26:31;;;;;;;7.30;3.97;;;10.80;99.90;;;;;;5044977;28;20560;-78
2022/12/19 04:29:03;;;;;;;4.80;3.90;;;10.80;99.90;;;;;;5068014;28;20240;-78
2022/12/19 04:31:30;;;;;;;6.80;4.13;;;10.80;99.90;;;;;;5080477;28;20214;-78
2022/12/19 04:33:57;;;;;;;3.73;3.33;;;10.80;99.90;;;;;;5052749;28;20197;-78
2022/12/19 04:36:25;;;;;;;5.93;3.70;;;10.80;99.90;;;;;;5050503;28;20183;-78
2022/12/19 04:38:53;;;;;;;5.97;3.70;;;10.70;99.90;;;;;;5050465;28;20663;-78
2022/12/19 04:41:20;;;;;;;5.77;4.07;;;10.80;99.90;;;;;;5071141;28;20245;-78
2022/12/19 04:43:46;;;;;;;7.63;4.57;;;10.80;99.90;;;;;;5049146;28;20180;-78
2022/12/19 04:46:14;;;;;;;4.63;4.13;;;10.80;99.90;;;;;;5060797;28;20679;-78
2022/12/19 04:48:40;;;;;;;6.43;4.27;;;10.80;99.90;;;;;;5035191;28;20182;-78
2022/12/19 04:51:07;;;;;;;5.20;4.33;;;10.80;99.90;;;;;;5057496;28;20236;-78
2022/12/19 04:53:34;;;;;;;4.30;3.90;;;10.80;99.90;;;;;;5052744;28;20226;-78
2022/12/19 04:56:05;;;;;;;4.87;3.70;;;10.80;99.90;;;;;;5040115;28;20188;-78
2022/12/19 04:58:32;;;;;;;6.07;4.20;;;10.80;99.90;;;;;;5065134;28;20279;-78
2022/12/19 05:01:07;;;;;;;5.00;3.90;;;10.80;99.90;;;;;;5067916;28;20670;-78
2022/12/19 05:03:36;;;;;;;4.90;4.30;;;10.80;99.90;;;;;;5075087;28;20252;-78
2022/12/19 05:06:16;;;;;;;5.57;4.00;;;10.80;99.90;;;;;;5075459;28;20782;-78
2022/12/19 05:08:43;;;;;;;6.87;4.27;;;10.70;99.90;;;;;;5066998;28;20209;-78
2022/12/19 05:11:14;;;;;;;5.93;3.73;;;10.80;99.90;;;;;;5061788;28;20182;-78
2022/12/19 05:13:40;;;;;;;6.00;3.90;;;10.80;99.90;;;;;;5048109;28;20188;-78
2022/12/19 05:16:10;;;;;;;7.27;3.87;;;10.80;99.90;;;;;;5087303;28;20186;-78
2022/12/19 05:18:38;;;;;;;5.87;4.40;;;10.80;99.90;;;;;;5073749;28;20278;-78
2022/12/19 05:21:05;;;;;;;6.70;3.67;;;10.80;99.90;;;;;;5050748;28;20811;-77
2022/12/19 05:23:31;;;;;;;5.53;4.30;;;10.80;99.90;;;;;;5050462;28;20297;-78
2022/12/19 05:26:00;;;;;;;5.30;4.30;;;10.80;99.90;;;;;;5070428;28;20215;-78
2022/12/19 05:28:29;;;;;;;6.40;4.53;;;10.80;99.90;;;;;;5072929;28;20298;-78
2022/12/19 05:31:15;;;;;;;7.87;3.80;;;10.80;99.90;;;;;;5070899;28;20216;-78
2022/12/19 05:33:42;;;;;;;5.93;3.73;;;10.80;99.90;;;;;;5050470;28;20187;-78
2022/12/19 05:36:12;;;;;;;4.40;3.90;;;10.80;99.90;;;;;;5068085;28;20607;-78
2022/12/19 05:38:39;;;;;;;8.40;4.03;;;10.80;99.90;;;;;;5075379;28;20265;-78
2022/12/19 05:41:16;;;;;;;5.23;3.60;;;10.80;99.90;;;;;;5060841;28;20202;-78
2022/12/19 05:43:48;;;;;;;6.30;4.13;;;10.80;99.90;;;;;;5050361;28;20178;-78
2022/12/19 05:46:14;;;;;;;5.03;4.07;;;10.80;99.90;;;;;;5067361;28;20242;-78
2022/12/19 05:48:41;;;;;;;6.43;4.10;;;10.80;99.90;;;;;;5051152;28;20183;-78
2022/12/19 05:51:07;;;;;;;3.43;3.13;;;10.80;99.90;;;;;;5066140;28;20277;-78
2022/12/19 05:53:39;;;;;;;6.03;4.03;;;10.80;99.90;;;;;;5075135;28;20316;-78
2022/12/19 05:56:16;;;;;;;5.40;4.07;;;10.80;99.90;;;;;;5039889;28;20244;-78
2022/12/19 05:58:43;;;;;;;4.13;3.33;;;10.80;99.90;;;;;;5057379;28;20190;-78
2022/12/19 06:01:31;;;;;;;5.50;3.53;;;10.80;99.90;;;;;;5074375;28;20677;-78
2022/12/19 06:03:57;;;;;;;6.10;4.13;;;10.90;99.90;;;;;;5051744;28;20586;-78
2022/12/19 06:06:26;;;;;;;4.23;3.83;;;10.90;99.90;;;;;;5063059;28;20223;-78
2022/12/19 06:08:54;;;;;;;5.33;3.80;;;10.90;99.90;;;;;;5060011;28;20187;-78
2022/12/19 06:11:22;;;;;;;6.50;3.87;;;10.90;99.90;;;;;;5067210;28;20188;-78
2022/12/19 06:13:49;;;;;;;5.13;3.73;;;11.00;99.90;;;;;;5050560;28;20183;-78
2022/12/19 06:16:19;;;;;;;5.50;3.73;;;11.10;99.90;;;;;;5079799;28;20195;-78
2022/12/19 06:18:46;;;;;;;5.87;3.83;;;11.10;99.90;;;;;;5061169;28;20186;-78
2022/12/19 06:21:22;;;;;;;6.77;3.60;;;11.10;99.90;;;;;;5054349;28;20187;-78
2022/12/19 06:23:48;;;;;;;7.43;3.70;;;11.20;99.90;;;;;;5051233;28;20670;-78
2022/12/19 06:26:18;;;;;;;3.93;3.43;;;11.30;99.90;;;;;;5071514;28;20211;-78
2022/12/19 06:28:45;;;;;;;7.30;3.67;;;11.40;99.90;;;;;;5073390;28;20635;-78
2022/12/19 06:31:12;;;;;;;3.73;3.43;;;11.40;99.90;;;;;;5080379;28;20296;-78
2022/12/19 06:33:39;;;;;;;4.20;3.80;;;11.50;99.90;;;;;;5073587;28;20190;-78
2022/12/19 06:36:15;;;;;;;4.53;3.70;;;11.60;99.90;;;;;;5070819;28;20632;-78
2022/12/19 06:38:42;;;;;;;4.60;3.50;;;11.70;99.90;;;;;;5054091;28;20773;-78
2022/12/19 06:44:00;;;;;;;4.53;3.60;;;11.80;99.90;;;;;;5069172;28;20187;-78
2022/12/19 06:46:27;;;;;;;6.07;3.60;;;11.90;99.90;;;;;;5059747;28;20226;-78
2022/12/19 06:48:55;;;;;;;4.50;3.50;;;11.90;99.90;;;;;;5092404;28;20185;-78
2022/12/19 06:51:22;;;;;;;3.93;3.40;;;12.00;99.90;;;;;;5063641;28;20191;-78
2022/12/19 06:53:49;;;;;;;4.33;3.67;;;12.00;99.90;;;;;;5053157;28;20205;-78
2022/12/19 06:56:17;;;;;;;3.87;3.47;;;12.10;99.90;;;;;;5086360;28;20191;-78
2022/12/19 06:58:44;;;;;;;4.10;3.70;;;12.10;99.90;;;;;;5080357;28;20203;-78
2022/12/19 07:01:32;;;;;;;8.60;3.70;;;12.20;99.90;;;;;;5087742;28;20294;-78
2022/12/19 07:04:00;;;;;;;6.57;3.90;;;12.30;99.90;;;;;;5064877;28;20198;-78
2022/12/19 07:06:27;;;;;;;4.67;3.80;;;12.30;99.90;;;;;;5076969;28;20377;-78
2022/12/19 07:08:54;;;;;;;4.90;4.40;;;12.40;99.90;;;;;;5074670;28;20195;-78
2022/12/19 07:11:20;;;;;;;4.93;4.43;;;12.50;99.90;;;;;;5074466;28;20530;-78
2022/12/19 07:13:47;;;;;;;5.27;4.13;;;12.50;99.90;;;;;;5074243;28;20578;-78
2022/12/19 07:16:13;;;;;;;4.60;4.20;;;12.60;99.90;;;;;;5074743;28;20186;-78
2022/12/19 07:18:41;;;;;;;6.10;5.23;;;12.60;99.90;;;;;;5087373;28;20217;-78
2022/12/19 07:21:10;;;;;;;6.20;4.47;;;12.60;99.90;;;;;;5069199;28;20192;-78
2022/12/19 07:23:37;;;;;;;8.20;5.03;;;12.60;99.90;;;;;;5085864;28;20660;-78
2022/12/19 07:26:03;;;;;;;5.43;4.60;;;12.70;99.90;;;;;;5072759;28;20242;-78
2022/12/19 07:28:32;;;;;;;7.27;4.70;;;12.70;99.90;;;;;;5069491;28;20225;-77
2022/12/19 07:31:01;;;;;;;6.33;4.97;;;12.80;99.90;;;;;;5084176;28;20193;-78
2022/12/19 07:33:27;;;;;;;5.90;5.07;;;12.80;99.90;;;;;;5042241;28;20637;-78
2022/12/19 07:35:54;;;;;;;5.80;4.67;;;12.90;99.90;;;;;;5067741;28;20730;-78
2022/12/19 07:38:20;;;;;;;6.00;4.87;;;13.00;99.90;;;;;;5054246;28;20320;-78
2022/12/19 07:40:46;;;;;;;5.30;4.80;;;13.00;99.90;;;;;;5064700;28;20675;-78
2022/12/19 07:43:12;;;;;;;5.27;4.50;;;12.90;99.90;;;;;;5046277;28;20252;-78
2022/12/19 07:45:39;;;;;;;5.67;4.70;;;12.90;99.90;;;;;;5085332;28;20307;-78
2022/12/19 07:48:06;;;;;;;7.93;5.07;;;12.90;99.90;;;;;;5069934;28;20190;-77
2022/12/19 07:50:33;;;;;;;5.27;4.50;;;13.00;99.90;;;;;;5073591;28;20281;-78
2022/12/19 07:53:00;;;;;;;5.80;4.90;;;13.00;99.90;;;;;;5052314;28;20233;-78
2022/12/19 07:55:27;;;;;;;9.60;4.90;;;12.90;99.90;;;;;;5066569;28;20194;-78
2022/12/19 07:57:54;;;;;;;8.33;4.87;;;13.00;99.90;;;;;;5065611;28;20191;-78
2022/12/19 08:00:21;;;;;;;5.07;4.50;;;13.00;99.90;;;;;;5067894;28;20532;-78
2022/12/19 08:02:48;;;;;;;6.67;4.90;;;13.00;99.90;;;;;;5060027;28;20295;-78
2022/12/19 08:05:14;;;;;;;5.07;4.23;;;13.00;99.90;;;;;;5066665;28;20324;-78
2022/12/19 08:07:41;;;;;;;4.83;4.33;;;13.00;99.90;;;;;;5064712;28;20860;-78
2022/12/19 08:10:10;;;;;;;6.63;5.03;;;13.00;99.90;;;;;;5070578;28;20191;-78
2022/12/19 08:12:36;;;;;;;5.27;4.43;;;13.00;99.90;;;;;;5049832;28;20206;-78
2022/12/19 08:15:04;;;;;;;6.67;4.97;;;13.10;99.90;;;;;;5080544;28;20217;-78
2022/12/19 08:17:30;;;;;;;5.37;4.67;;;13.10;99.90;;;;;;5068267;28;20289;-78
2022/12/19 08:19:57;;;;;;;6.07;5.00;;;13.10;99.90;;;;;;5068472;28;20190;-78
2022/12/19 08:22:23;;;;;;;6.33;5.13;;;13.20;99.90;;;;;;5054043;28;20202;-78
2022/12/19 08:24:50;;;;;;;11.77;5.90;;;13.20;99.90;;;;;;5066110;28;20574;-78
2022/12/19 08:27:17;;;;;;;6.33;4.90;;;13.20;99.90;;;;;;5062001;28;20548;-78
2022/12/19 08:29:44;;;;;;;5.90;5.30;;;13.30;99.90;;;;;;5067875;28;20183;-78
2022/12/19 08:32:10;;;;;;;5.93;5.20;;;13.30;99.90;;;;;;5062790;28;20187;-78
2022/12/19 08:34:39;;;;;;;7.30;5.27;;;13.40;99.90;;;;;;5061877;28;20236;-78
2022/12/19 08:37:05;;;;;;;12.13;6.60;;;13.50;99.90;;;;;;5084110;28;20249;-78
2022/12/19 08:39:32;;;;;;;8.13;5.17;;;13.50;99.90;;;;;;5068347;28;20611;-78
2022/12/19 08:41:58;;;;;;;8.33;5.90;;;13.60;99.90;;;;;;5067034;28;20615;-78
2022/12/19 08:44:24;;;;;;;7.50;5.30;;;13.60;99.90;;;;;;5063772;28;20277;-78
2022/12/19 08:46:54;;;;;;;8.93;6.03;;;13.60;99.90;;;;;;5076493;28;20189;-78
2022/12/19 08:49:21;;;;;;;8.70;6.03;;;13.70;99.90;;;;;;5060563;28;20261;-78
2022/12/19 08:51:47;;;;;;;6.77;5.80;;;13.80;99.90;;;;;;5073333;28;20319;-78
2022/12/19 08:54:14;;;;;;;7.70;6.10;;;13.80;99.90;;;;;;5048771;28;20183;-78
2022/12/19 08:56:41;;;;;;;7.67;6.63;;;13.80;99.90;;;;;;5049320;28;20819;-78
2022/12/19 08:59:07;;;;;;;7.70;6.37;;;13.80;99.90;;;;;;5064935;28;20199;-78
2022/12/19 09:01:33;;;;;;;8.50;6.87;;;13.90;99.90;;;;;;5068770;28;20191;-78
2022/12/19 09:04:00;;;;;;;10.23;7.27;;;14.00;99.90;;;;;;5051188;28;20182;-78
2022/12/19 09:06:26;;;;;;;10.23;8.30;;;14.00;99.90;;;;;;5068269;28;20207;-78
2022/12/19 09:08:53;;;;;;;11.97;9.13;;;14.10;99.90;;;;;;5075630;28;20179;-78
2022/12/19 09:11:20;;;;;;;12.33;9.40;;;14.10;99.90;;;;;;5063672;28;20199;-78
2022/12/19 09:13:48;;;;;;;13.07;9.80;;;14.10;99.90;;;;;;5047035;28;20179;-78
2022/12/19 09:16:20;;;;;;;11.77;9.93;;;14.20;99.90;;;;;;5063571;28;20198;-78
2022/12/19 09:18:50;;;;;;;13.90;10.67;;;14.20;99.90;;;;;;5049880;28;20205;-78
2022/12/19 09:21:19;;;;;;;19.37;9.83;;;14.30;99.90;;;;;;5074361;28;20690;-78
2022/12/19 09:23:54;;;;;;;13.13;9.10;;;14.30;99.90;;;;;;5064873;28;20206;-78
2022/12/19 09:26:23;;;;;;;12.70;10.10;;;14.40;99.90;;;;;;5064917;28;20213;-78
2022/12/19 09:28:49;;;;;;;10.73;8.93;;;14.50;99.90;;;;;;5070584;28;20210;-78
2022/12/19 09:31:20;;;;;;;11.13;8.30;;;14.50;99.90;;;;;;5069247;28;20193;-78
2022/12/19 09:33:48;;;;;;;9.00;7.57;;;14.60;99.90;;;;;;5066966;28;20187;-78
2022/12/19 09:36:21;;;;;;;10.40;8.20;;;14.60;99.90;;;;;;5066718;28;20183;-78
2022/12/19 09:38:49;;;;;;;10.10;8.27;;;14.60;99.90;;;;;;5078908;28;20591;-78
2022/12/19 09:41:42;;;;;;;11.77;8.33;;;14.80;99.90;;;;;;5082713;28;20205;-78
2022/12/19 09:44:39;;;;;;;11.37;9.10;;;14.80;99.90;;;;;;5063774;28;20206;-78
2022/12/19 09:47:42;;;;;;;9.57;7.37;;;14.80;99.90;;;;;;5062038;28;20729;-78
2022/12/19 09:50:32;;;;;;;7.87;5.90;;;14.90;99.90;;;;;;5047130;28;20190;-78
2022/12/19 09:53:12;;;;;;;6.50;5.50;;;14.90;99.90;;;;;;5062517;28;20187;-79
2022/12/19 09:55:41;;;;;;;6.87;5.97;;;14.90;99.90;;;;;;5057901;28;20714;-78
2022/12/19 09:58:29;;;;;;;9.30;5.90;;;15.00;99.90;;;;;;5072952;28;20186;-79
2022/12/19 10:01:01;;;;;;;7.57;5.70;;;15.10;99.90;;;;;;5066766;28;20178;-78
2022/12/19 10:03:35;;;;;;;7.87;5.83;;;15.10;99.90;;;;;;5062613;28;20183;-78
2022/12/19 10:06:22;;;;;;;8.60;5.97;;;15.20;99.90;;;;;;5059165;28;20237;-79
2022/12/19 10:08:51;;;;;;;6.70;5.40;;;15.20;99.90;;;;;;5062478;28;20210;-79
2022/12/19 10:11:46;;;;;;;5.97;5.00;;;15.20;99.90;;;;;;5062827;28;20628;-79
2022/12/19 10:14:51;;;;;;;7.43;5.53;;;15.20;99.90;;;;;;5062955;28;20211;-78
2022/12/19 10:17:42;;;;;;;8.03;5.67;;;15.30;99.90;;;;;;5056672;28;20191;-79
2022/12/19 10:20:37;;;;;;;7.10;5.67;;;15.30;99.90;;;;;;5062725;28;20716;-79
2022/12/19 10:23:43;;;;;;;7.30;5.93;;;15.30;99.90;;;;;;5084343;28;20202;-79
2022/12/19 10:26:25;;;;;;;8.03;5.97;;;15.40;99.90;;;;;;5066266;28;20199;-79
2022/12/19 10:28:57;;;;;;;6.77;6.03;;;15.40;99.90;;;;;;5081124;28;20186;-79
2022/12/19 10:31:47;;;;;;;9.73;6.90;;;15.40;99.90;;;;;;5082782;28;20232;-79
2022/12/19 10:34:31;;;;;;;7.97;6.57;;;15.40;99.90;;;;;;5071316;28;20575;-79
2022/12/19 10:37:28;;;;;;;9.50;6.50;;;15.50;99.90;;;;;;5082955;28;20550;-79
2022/12/19 10:40:18;;;;;;;9.00;6.87;;;15.50;99.90;;;;;;5063224;28;20198;-79
2022/12/19 10:42:51;;;;;;;9.93;6.30;;;15.60;99.90;;;;;;5072384;28;20638;-79
2022/12/19 10:45:24;;;;;;;8.70;6.07;;;15.70;99.90;;;;;;5076226;28;20955;-78
2022/12/19 10:47:56;;;;;;;10.30;6.87;;;15.80;99.90;;;;;;5066570;28;20312;-79
2022/12/19 10:50:28;;;;;;;7.77;6.73;;;15.90;99.90;;;;;;5061570;28;20218;-79
2022/12/19 10:53:16;;;;;;;9.60;7.10;;;16.20;99.90;;;;;;5055732;28;20186;-79
2022/12/19 10:55:52;;;;;;;9.97;7.10;;;16.20;99.90;;;;;;5056081;28;20520;-78
2022/12/19 10:58:35;;;;;;;10.13;7.40;;;16.30;99.90;;;;;;5048064;28;20240;-79
2022/12/19 11:01:28;;;;;;;8.60;6.63;;;16.20;99.90;;;;;;5065009;28;20289;-79
2022/12/19 11:04:28;;;;;;;7.20;6.43;;;16.20;99.90;;;;;;5068449;28;20195;-79
2022/12/19 11:07:03;;;;;;;10.53;7.13;;;16.40;99.90;;;;;;5070159;28;20209;-79
2022/12/19 11:09:42;;;;;;;7.63;6.75;;;16.60;99.90;;;;;;5069416;28;20195;-79
2022/12/19 11:12:11;;;;;;;7.32;6.50;;;16.70;99.90;;;;;;5070715;28;20187;-79
2022/12/19 11:14:50;;;;;;;10.07;7.25;;;16.80;99.90;;;;;;5049154;28;20190;-79
2022/12/19 11:17:46;;;;;;;8.75;7.30;;;16.90;99.90;;;;;;5066031;28;20245;-80
2022/12/19 11:20:23;;;;;;;7.80;7.00;;;17.00;99.90;;;;;;5066790;28;21110;-79
2022/12/19 11:23:02;;;;;;;7.88;7.07;;;16.90;99.90;;;;;;5097947;28;20218;-79
2022/12/19 11:25:42;;;;;;;8.27;7.35;;;16.90;99.90;;;;;;5049219;28;20219;-80
2022/12/19 11:28:26;;;;;;;10.95;7.72;;;16.90;99.90;;;;;;5078317;28;20779;-79
2022/12/19 11:31:22;;;;;;;8.83;7.77;;;16.90;99.90;;;;;;5065031;28;20178;-80
2022/12/19 11:34:12;;;;;;;8.83;7.20;;;16.90;99.90;;;;;;5065732;28;20182;-79
2022/12/19 11:36:54;;;;;;;11.77;8.10;;;17.00;99.90;;;;;;5062965;28;20217;-80
2022/12/19 11:39:39;;;;;;;8.00;7.20;;;17.10;99.90;;;;;;5059197;28;20188;-79
2022/12/19 11:42:29;;;;;;;8.70;7.80;;;17.10;99.90;;;;;;5081098;28;20574;-79
2022/12/19 11:45:13;;;;;;;9.40;8.00;;;17.10;99.90;;;;;;5042224;28;20215;-79
2022/12/19 11:48:22;;;;;;;9.90;8.23;;;17.10;99.90;;;;;;5076171;28;20182;-79
2022/12/19 11:51:31;;;;;;;10.07;8.73;;;17.10;99.90;;;;;;5048966;28;20171;-79
2022/12/19 11:54:07;;;;;;;12.10;8.83;;;17.10;99.90;;;;;;5064867;28;20191;-79
2022/12/19 11:56:34;;;;;;;10.87;8.67;;;17.10;99.90;;;;;;5048208;28;20511;-79
2022/12/19 11:59:14;;;;;;;9.93;8.47;;;17.20;99.90;;;;;;5056488;28;20574;-79
2022/12/19 12:02:21;;;;;;;10.57;9.03;;;17.20;99.90;;;;;;5052026;28;20194;-79
2022/12/19 12:05:15;;;;;;;11.80;8.50;;;17.20;99.90;;;;;;5046754;28;20712;-79
2022/12/19 12:07:42;;;;;;;11.40;8.80;;;17.20;99.90;;;;;;5069805;28;20232;-79
2022/12/19 12:10:17;;;;;;;10.63;8.73;;;17.20;99.90;;;;;;5073299;28;20650;-79
2022/12/19 12:13:14;;;;;;;10.60;9.50;;;17.20;99.90;;;;;;5070243;28;20188;-79
2022/12/19 12:16:21;;;;;;;10.20;9.00;;;17.20;99.90;;;;;;5068410;28;20693;-79
2022/12/19 12:19:19;;;;;;;11.17;8.63;;;17.20;99.90;;;;;;5063245;28;20190;-79
2022/12/19 12:22:35;;;;;;;14.37;9.00;;;17.20;99.90;;;;;;5065694;28;20721;-79
2022/12/19 12:25:26;;;;;;;10.07;8.23;;;17.20;99.90;;;;;;5068040;28;20230;-79
2022/12/19 12:28:51;;;;;;;13.77;8.60;;;17.20;99.90;;;;;;5069365;28;20179;-79
2022/12/19 12:31:52;;;;;;;10.03;9.00;;;17.10;99.90;;;;;;5064973;28;20186;-79
2022/12/19 12:34:40;;;;;;;9.90;8.90;;;17.20;99.90;;;;;;5065039;28;20250;-79
2022/12/19 12:37:47;;;;;;;11.33;9.73;;;17.10;99.90;;;;;;5069359;28;20182;-79
2022/12/19 12:40:45;;;;;;;11.27;9.07;;;17.10;99.90;;;;;;5084933;28;20182;-79
2022/12/19 12:44:06;;;;;;;13.20;9.47;;;17.00;99.90;;;;;;5050954;28;20274;-79
2022/12/19 12:46:48;;;;;;;11.57;10.20;;;17.00;99.90;;;;;;5064692;28;20234;-79
2022/12/19 12:49:42;;;;;;;13.53;10.33;;;17.00;99.90;;;;;;5056465;28;20170;-79
2022/12/19 12:52:20;;;;;;;13.13;10.30;;;17.00;99.90;;;;;;5068843;28;20512;-78
2022/12/19 12:54:49;;;;;;;13.10;10.87;;;17.00;99.90;;;;;;5084660;28;20186;-79
2022/12/19 12:57:35;;;;;;;13.10;10.43;;;16.90;99.90;;;;;;5067006;28;20240;-79
2022/12/19 13:00:33;;;;;;;13.60;11.23;;;16.90;99.90;;;;;;5066969;28;20208;-78
2022/12/19 13:03:16;;;;;;;12.73;11.30;;;16.90;99.90;;;;;;5049874;28;20193;-78
2022/12/19 13:05:46;;;;;;;14.70;11.80;;;16.90;99.90;;;;;;5084001;28;20602;-78
2022/12/19 13:08:34;;;;;;;14.53;11.90;;;16.80;99.90;;;;;;5067183;28;20671;-79
2022/12/19 13:14:34;;;;;;;16.80;14.13;;;16.80;99.90;;;;;;5047201;28;20278;-78
2022/12/19 13:17:06;;;;;;;18.53;14.63;;;16.70;99.90;;;;;;5053835;28;20200;-78
2022/12/19 13:19:50;;;;;;;19.63;14.70;;;16.70;99.90;;;;;;5047142;28;20360;-78
2022/12/19 13:22:43;;;;;;;18.97;14.10;;;16.60;99.90;;;;;;5096889;28;20222;-78
2022/12/19 13:25:36;;;;;;;16.93;14.43;;;16.60;99.90;;;;;;5075013;28;20215;-77
2022/12/19 13:28:03;;;;;;;19.97;14.77;;;16.60;99.90;;;;;;5073887;28;20354;-77
2022/12/19 13:30:32;;;;;;;17.70;13.53;;;16.50;99.90;;;;;;5065354;28;20659;-77
2022/12/19 13:32:58;;;;;;;17.87;14.40;;;16.50;99.90;;;;;;5029413;28;20260;-77